sensor_id;sensor_type;location;lat;lon;timestamp;temperature;humidity
29777;DHT22;16677;52.224;7.484;2023-06-22T00:01:23;20.10;99.90
29777;DHT22;16677;52.224;7.484;2023-06-22T00:03:51;19.90;99.90
29777;DHT22;16677;52.224;7.484;2023-06-22T00:06:18;20.10;99.90
29777;DHT22;16677;52.224;7.484;2023-06-22T00:08:46;19.70;99.90
29777;DHT22;16677;52.224;7.484;2023-06-22T00:11:13;19.70;99.90
29777;DHT22;16677;52.224;7.484;2023-06-22T00:13:41;19.80;99.90
29777;DHT22;16677;52.224;7.484;2023-06-22T00:16:08;19.70;99.90
29777;DHT22;16677;52.224;7.484;2023-06-22T00:18:35;19.70;99.90
29777;DHT22;16677;52.224;7.484;2023-06-22T00:21:02;19.70;99.90
29777;DHT22;16677;52.224;7.484;2023-06-22T00:23:31;19.60;99.90
29777;DHT22;16677;52.224;7.484;2023-06-22T00:26:01;19.60;99.90
29777;DHT22;16677;52.224;7.484;2023-06-22T00:28:30;19.60;99.90
29777;DHT22;16677;52.224;7.484;2023-06-22T00:30:58;19.50;99.90
29777;DHT22;16677;52.224;7.484;2023-06-22T00:33:27;19.60;99.90
29777;DHT22;16677;52.224;7.484;2023-06-22T00:35:55;19.60;99.90
29777;DHT22;16677;52.224;7.484;2023-06-22T00:38:22;19.50;99.90
29777;DHT22;16677;52.224;7.484;2023-06-22T00:40:50;19.40;99.90
29777;DHT22;16677;52.224;7.484;2023-06-22T00:43:17;19.40;99.90
29777;DHT22;16677;52.224;7.484;2023-06-22T00:45:44;19.30;99.90
29777;DHT22;16677;52.224;7.484;2023-06-22T00:48:12;19.30;99.90
29777;DHT22;16677;52.224;7.484;2023-06-22T00:50:40;19.20;99.90
29777;DHT22;16677;52.224;7.484;2023-06-22T00:53:08;19.10;99.90
29777;DHT22;16677;52.224;7.484;2023-06-22T00:55:44;19.10;99.90
29777;DHT22;16677;52.224;7.484;2023-06-22T00:58:18;19.10;99.90
29777;DHT22;16677;52.224;7.484;2023-06-22T01:00:48;19.10;99.90
29777;DHT22;16677;52.224;7.484;2023-06-22T01:03:17;19.10;99.90
29777;DHT22;16677;52.224;7.484;2023-06-22T01:05:46;19.10;99.90
29777;DHT22;16677;52.224;7.484;2023-06-22T01:08:51;19.00;99.90
29777;DHT22;16677;52.224;7.484;2023-06-22T01:11:31;19.00;99.90
29777;DHT22;16677;52.224;7.484;2023-06-22T01:14:08;19.00;99.90
29777;DHT22;16677;52.224;7.484;2023-06-22T01:16:44;18.90;99.90
29777;DHT22;16677;52.224;7.484;2023-06-22T01:19:45;18.90;99.90
29777;DHT22;16677;52.224;7.484;2023-06-22T01:22:16;18.80;99.90
29777;DHT22;16677;52.224;7.484;2023-06-22T01:30:43;18.80;99.90
29777;DHT22;16677;52.224;7.484;2023-06-22T01:33:13;18.80;99.90
29777;DHT22;16677;52.224;7.484;2023-06-22T01:35:41;18.80;99.90
29777;DHT22;16677;52.224;7.484;2023-06-22T01:38:09;18.90;99.90
29777;DHT22;16677;52.224;7.484;2023-06-22T01:40:36;18.90;99.90
29777;DHT22;16677;52.224;7.484;2023-06-22T01:43:04;18.70;99.90
29777;DHT22;16677;52.224;7.484;2023-06-22T01:45:31;18.60;99.90
29777;DHT22;16677;52.224;7.484;2023-06-22T01:47:59;18.50;99.90
29777;DHT22;16677;52.224;7.484;2023-06-22T01:50:30;18.50;99.90
29777;DHT22;16677;52.224;7.484;2023-06-22T01:52:57;18.50;99.90
29777;DHT22;16677;52.224;7.484;2023-06-22T01:57:59;18.50;99.90
29777;DHT22;16677;52.224;7.484;2023-06-22T02:03:10;18.40;99.90
29777;DHT22;16677;52.224;7.484;2023-06-22T02:05:46;18.30;99.90
29777;DHT22;16677;52.224;7.484;2023-06-22T02:08:20;18.30;99.90
29777;DHT22;16677;52.224;7.484;2023-06-22T02:10:53;18.40;99.90
29777;DHT22;16677;52.224;7.484;2023-06-22T02:13:23;18.30;99.90
29777;DHT22;16677;52.224;7.484;2023-06-22T02:15:51;18.40;99.90
29777;DHT22;16677;52.224;7.484;2023-06-22T02:18:21;18.30;99.90
29777;DHT22;16677;52.224;7.484;2023-06-22T02:20:48;18.30;99.90
29777;DHT22;16677;52.224;7.484;2023-06-22T02:23:15;18.30;99.90
29777;DHT22;16677;52.224;7.484;2023-06-22T02:25:42;18.30;99.90
29777;DHT22;16677;52.224;7.484;2023-06-22T02:28:12;18.20;99.90
29777;DHT22;16677;52.224;7.484;2023-06-22T02:30:40;18.20;99.90
29777;DHT22;16677;52.224;7.484;2023-06-22T02:33:16;18.20;99.90
29777;DHT22;16677;52.224;7.484;2023-06-22T02:35:43;18.20;99.90
29777;DHT22;16677;52.224;7.484;2023-06-22T02:38:14;18.20;99.90
29777;DHT22;16677;52.224;7.484;2023-06-22T02:40:42;18.20;99.90
29777;DHT22;16677;52.224;7.484;2023-06-22T02:43:09;18.10;99.90
29777;DHT22;16677;52.224;7.484;2023-06-22T02:45:36;18.10;99.90
29777;DHT22;16677;52.224;7.484;2023-06-22T02:48:04;18.10;99.90
29777;DHT22;16677;52.224;7.484;2023-06-22T02:50:32;18.10;99.90
29777;DHT22;16677;52.224;7.484;2023-06-22T02:52:59;18.20;99.90
29777;DHT22;16677;52.224;7.484;2023-06-22T02:55:26;18.10;99.90
29777;DHT22;16677;52.224;7.484;2023-06-22T02:57:53;18.10;99.90
29777;DHT22;16677;52.224;7.484;2023-06-22T03:00:20;18.10;99.90
29777;DHT22;16677;52.224;7.484;2023-06-22T03:02:48;18.10;99.90
29777;DHT22;16677;52.224;7.484;2023-06-22T03:05:17;17.90;99.90
29777;DHT22;16677;52.224;7.484;2023-06-22T03:07:45;18.00;99.90
29777;DHT22;16677;52.224;7.484;2023-06-22T03:10:14;18.00;99.90
29777;DHT22;16677;52.224;7.484;2023-06-22T03:12:42;18.00;99.90
29777;DHT22;16677;52.224;7.484;2023-06-22T03:15:11;18.00;99.90
29777;DHT22;16677;52.224;7.484;2023-06-22T03:17:40;17.90;99.90
29777;DHT22;16677;52.224;7.484;2023-06-22T03:20:09;17.90;99.90
29777;DHT22;16677;52.224;7.484;2023-06-22T03:22:39;17.90;99.90
29777;DHT22;16677;52.224;7.484;2023-06-22T03:25:07;18.00;99.90
29777;DHT22;16677;52.224;7.484;2023-06-22T03:27:41;18.00;99.90
29777;DHT22;16677;52.224;7.484;2023-06-22T03:30:10;18.00;99.90
29777;DHT22;16677;52.224;7.484;2023-06-22T03:32:38;18.00;99.90
29777;DHT22;16677;52.224;7.484;2023-06-22T03:35:06;18.00;99.90
29777;DHT22;16677;52.224;7.484;2023-06-22T03:37:33;18.00;99.90
29777;DHT22;16677;52.224;7.484;2023-06-22T03:40:00;18.00;99.90
29777;DHT22;16677;52.224;7.484;2023-06-22T03:42:28;18.00;99.90
29777;DHT22;16677;52.224;7.484;2023-06-22T03:44:55;17.90;99.90
29777;DHT22;16677;52.224;7.484;2023-06-22T03:47:22;18.00;99.90
29777;DHT22;16677;52.224;7.484;2023-06-22T03:49:50;18.00;99.90
29777;DHT22;16677;52.224;7.484;2023-06-22T03:52:22;18.00;99.90
29777;DHT22;16677;52.224;7.484;2023-06-22T03:54:49;18.00;99.90
29777;DHT22;16677;52.224;7.484;2023-06-22T03:57:16;18.00;99.90
29777;DHT22;16677;52.224;7.484;2023-06-22T03:59:43;18.00;99.90
29777;DHT22;16677;52.224;7.484;2023-06-22T04:02:10;18.00;99.90
29777;DHT22;16677;52.224;7.484;2023-06-22T04:04:38;18.10;99.90
29777;DHT22;16677;52.224;7.484;2023-06-22T04:07:06;18.10;99.90
29777;DHT22;16677;52.224;7.484;2023-06-22T04:09:33;18.20;99.90
29777;DHT22;16677;52.224;7.484;2023-06-22T04:12:01;18.20;99.90
29777;DHT22;16677;52.224;7.484;2023-06-22T04:14:29;18.30;99.90
29777;DHT22;16677;52.224;7.484;2023-06-22T04:16:57;18.40;99.90
29777;DHT22;16677;52.224;7.484;2023-06-22T04:19:24;18.40;99.90
29777;DHT22;16677;52.224;7.484;2023-06-22T04:21:51;18.50;99.90
29777;DHT22;16677;52.224;7.484;2023-06-22T04:24:18;18.70;99.90
29777;DHT22;16677;52.224;7.484;2023-06-22T04:26:45;18.80;96.80
29777;DHT22;16677;52.224;7.484;2023-06-22T04:29:14;19.00;83.20
29777;DHT22;16677;52.224;7.484;2023-06-22T04:31:41;19.20;70.00
29777;DHT22;16677;52.224;7.484;2023-06-22T04:34:09;19.20;65.40
29777;DHT22;16677;52.224;7.484;2023-06-22T04:36:38;19.30;58.20
29777;DHT22;16677;52.224;7.484;2023-06-22T04:39:12;19.50;51.20
29777;DHT22;16677;52.224;7.484;2023-06-22T04:41:40;19.80;37.70
29777;DHT22;16677;52.224;7.484;2023-06-22T04:44:16;19.90;21.20
29777;DHT22;16677;52.224;7.484;2023-06-22T04:47:00;20.00;20.20
29777;DHT22;16677;52.224;7.484;2023-06-22T04:49:30;20.20;19.50
29777;DHT22;16677;52.224;7.484;2023-06-22T04:52:07;20.10;17.90
29777;DHT22;16677;52.224;7.484;2023-06-22T04:54:36;20.10;17.80
29777;DHT22;16677;52.224;7.484;2023-06-22T04:57:08;19.90;18.50
29777;DHT22;16677;52.224;7.484;2023-06-22T04:59:38;19.80;32.80
29777;DHT22;16677;52.224;7.484;2023-06-22T05:02:09;20.20;13.90
29777;DHT22;16677;52.224;7.484;2023-06-22T05:04:36;20.40;1.00
29777;DHT22;16677;52.224;7.484;2023-06-22T05:07:06;20.30;1.00
29777;DHT22;16677;52.224;7.484;2023-06-22T05:09:33;20.70;1.00
29777;DHT22;16677;52.224;7.484;2023-06-22T05:12:01;21.20;1.00
29777;DHT22;16677;52.224;7.484;2023-06-22T05:14:29;21.60;1.00
29777;DHT22;16677;52.224;7.484;2023-06-22T05:16:57;21.40;1.00
29777;DHT22;16677;52.224;7.484;2023-06-22T05:19:30;21.50;1.00
29777;DHT22;16677;52.224;7.484;2023-06-22T05:22:01;21.90;1.00
29777;DHT22;16677;52.224;7.484;2023-06-22T05:24:28;21.90;1.00
29777;DHT22;16677;52.224;7.484;2023-06-22T05:26:55;21.50;1.00
29777;DHT22;16677;52.224;7.484;2023-06-22T05:29:22;21.60;1.00
29777;DHT22;16677;52.224;7.484;2023-06-22T05:31:49;21.20;1.00
29777;DHT22;16677;52.224;7.484;2023-06-22T05:34:17;20.80;1.00
29777;DHT22;16677;52.224;7.484;2023-06-22T05:36:44;21.20;1.00
29777;DHT22;16677;52.224;7.484;2023-06-22T05:39:12;21.50;1.00
29777;DHT22;16677;52.224;7.484;2023-06-22T05:41:41;21.80;1.00
29777;DHT22;16677;52.224;7.484;2023-06-22T05:44:08;22.00;1.00
29777;DHT22;16677;52.224;7.484;2023-06-22T05:46:35;22.10;1.00
29777;DHT22;16677;52.224;7.484;2023-06-22T05:49:03;22.40;1.00
29777;DHT22;16677;52.224;7.484;2023-06-22T05:51:30;22.50;1.00
29777;DHT22;16677;52.224;7.484;2023-06-22T05:53:57;22.50;1.00
29777;DHT22;16677;52.224;7.484;2023-06-22T05:56:24;22.20;1.00
29777;DHT22;16677;52.224;7.484;2023-06-22T05:58:51;22.00;1.00
29777;DHT22;16677;52.224;7.484;2023-06-22T06:01:18;22.60;1.00
29777;DHT22;16677;52.224;7.484;2023-06-22T06:03:46;22.60;1.00
29777;DHT22;16677;52.224;7.484;2023-06-22T06:06:13;22.50;1.00
29777;DHT22;16677;52.224;7.484;2023-06-22T06:08:41;22.90;1.00
29777;DHT22;16677;52.224;7.484;2023-06-22T06:11:08;23.00;1.00
29777;DHT22;16677;52.224;7.484;2023-06-22T06:13:35;22.70;1.00
29777;DHT22;16677;52.224;7.484;2023-06-22T06:16:02;23.20;1.00
29777;DHT22;16677;52.224;7.484;2023-06-22T06:18:30;23.50;1.00
29777;DHT22;16677;52.224;7.484;2023-06-22T06:20:57;23.60;1.00
29777;DHT22;16677;52.224;7.484;2023-06-22T06:23:24;23.50;1.00
29777;DHT22;16677;52.224;7.484;2023-06-22T06:25:51;23.50;1.00
29777;DHT22;16677;52.224;7.484;2023-06-22T06:28:18;23.60;1.00
29777;DHT22;16677;52.224;7.484;2023-06-22T06:30:45;23.70;1.00
29777;DHT22;16677;52.224;7.484;2023-06-22T06:33:14;23.60;1.00
29777;DHT22;16677;52.224;7.484;2023-06-22T06:35:41;23.30;1.00
29777;DHT22;16677;52.224;7.484;2023-06-22T06:38:08;23.50;1.00
29777;DHT22;16677;52.224;7.484;2023-06-22T06:40:35;23.30;1.00
29777;DHT22;16677;52.224;7.484;2023-06-22T06:43:02;23.40;1.00
29777;DHT22;16677;52.224;7.484;2023-06-22T06:45:29;23.20;1.00
29777;DHT22;16677;52.224;7.484;2023-06-22T06:47:59;23.00;1.00
29777;DHT22;16677;52.224;7.484;2023-06-22T06:50:28;23.20;1.00
29777;DHT22;16677;52.224;7.484;2023-06-22T06:52:55;23.40;1.00
29777;DHT22;16677;52.224;7.484;2023-06-22T06:55:25;23.30;1.00
29777;DHT22;16677;52.224;7.484;2023-06-22T06:57:53;23.70;1.00
29777;DHT22;16677;52.224;7.484;2023-06-22T07:00:20;23.90;1.00
29777;DHT22;16677;52.224;7.484;2023-06-22T07:02:48;23.80;1.00
29777;DHT22;16677;52.224;7.484;2023-06-22T07:05:15;23.80;1.00
29777;DHT22;16677;52.224;7.484;2023-06-22T07:07:43;23.60;1.00
29777;DHT22;16677;52.224;7.484;2023-06-22T07:10:10;23.70;1.00
29777;DHT22;16677;52.224;7.484;2023-06-22T07:12:37;23.50;1.00
29777;DHT22;16677;52.224;7.484;2023-06-22T07:15:06;23.70;1.00
29777;DHT22;16677;52.224;7.484;2023-06-22T07:17:36;23.50;1.00
29777;DHT22;16677;52.224;7.484;2023-06-22T07:20:04;23.60;1.00
29777;DHT22;16677;52.224;7.484;2023-06-22T07:22:50;23.60;1.00
29777;DHT22;16677;52.224;7.484;2023-06-22T07:25:18;23.40;1.00
29777;DHT22;16677;52.224;7.484;2023-06-22T07:27:57;23.00;1.00
29777;DHT22;16677;52.224;7.484;2023-06-22T07:30:25;23.30;1.00
29777;DHT22;16677;52.224;7.484;2023-06-22T07:32:53;23.50;1.00
29777;DHT22;16677;52.224;7.484;2023-06-22T07:35:20;23.50;1.00
29777;DHT22;16677;52.224;7.484;2023-06-22T07:37:47;23.60;1.00
29777;DHT22;16677;52.224;7.484;2023-06-22T07:40:14;23.50;1.00
29777;DHT22;16677;52.224;7.484;2023-06-22T07:42:41;23.60;1.00
29777;DHT22;16677;52.224;7.484;2023-06-22T07:45:09;23.40;1.00
29777;DHT22;16677;52.224;7.484;2023-06-22T07:47:36;23.00;1.00
29777;DHT22;16677;52.224;7.484;2023-06-22T07:50:04;23.20;1.00
29777;DHT22;16677;52.224;7.484;2023-06-22T07:52:32;23.30;1.00
29777;DHT22;16677;52.224;7.484;2023-06-22T07:54:59;23.20;1.00
29777;DHT22;16677;52.224;7.484;2023-06-22T07:57:26;23.30;1.00
29777;DHT22;16677;52.224;7.484;2023-06-22T08:02:35;23.60;1.00
29777;DHT22;16677;52.224;7.484;2023-06-22T08:05:02;23.70;1.00
29777;DHT22;16677;52.224;7.484;2023-06-22T08:07:47;23.70;1.00
29777;DHT22;16677;52.224;7.484;2023-06-22T08:10:17;23.90;1.00
29777;DHT22;16677;52.224;7.484;2023-06-22T08:12:45;23.60;1.00
29777;DHT22;16677;52.224;7.484;2023-06-22T08:15:12;23.30;1.00
29777;DHT22;16677;52.224;7.484;2023-06-22T08:17:39;23.30;1.00
29777;DHT22;16677;52.224;7.484;2023-06-22T08:20:08;23.50;1.00
29777;DHT22;16677;52.224;7.484;2023-06-22T08:22:42;23.40;1.00
29777;DHT22;16677;52.224;7.484;2023-06-22T08:25:11;23.20;1.00
29777;DHT22;16677;52.224;7.484;2023-06-22T08:27:38;23.50;1.00
29777;DHT22;16677;52.224;7.484;2023-06-22T08:30:07;23.20;1.00
29777;DHT22;16677;52.224;7.484;2023-06-22T08:32:37;23.20;1.00
29777;DHT22;16677;52.224;7.484;2023-06-22T08:35:05;23.10;1.00
29777;DHT22;16677;52.224;7.484;2023-06-22T08:37:35;23.10;1.00
29777;DHT22;16677;52.224;7.484;2023-06-22T08:40:07;23.20;1.00
29777;DHT22;16677;52.224;7.484;2023-06-22T08:42:40;23.40;1.00
29777;DHT22;16677;52.224;7.484;2023-06-22T08:45:09;23.70;1.00
29777;DHT22;16677;52.224;7.484;2023-06-22T08:47:36;23.60;1.00
29777;DHT22;16677;52.224;7.484;2023-06-22T08:50:05;23.40;1.00
29777;DHT22;16677;52.224;7.484;2023-06-22T08:52:35;23.40;1.00
29777;DHT22;16677;52.224;7.484;2023-06-22T08:55:03;23.20;1.00
29777;DHT22;16677;52.224;7.484;2023-06-22T08:57:31;23.50;1.00
29777;DHT22;16677;52.224;7.484;2023-06-22T08:59:59;23.70;1.00
29777;DHT22;16677;52.224;7.484;2023-06-22T09:02:27;23.80;1.00
29777;DHT22;16677;52.224;7.484;2023-06-22T09:04:58;23.80;1.00
29777;DHT22;16677;52.224;7.484;2023-06-22T09:07:26;24.20;1.00
29777;DHT22;16677;52.224;7.484;2023-06-22T09:09:53;24.40;1.00
29777;DHT22;16677;52.224;7.484;2023-06-22T09:12:20;24.60;1.00
29777;DHT22;16677;52.224;7.484;2023-06-22T09:14:51;24.70;1.00
29777;DHT22;16677;52.224;7.484;2023-06-22T09:17:19;24.50;1.00
29777;DHT22;16677;52.224;7.484;2023-06-22T09:19:46;24.60;1.00
29777;DHT22;16677;52.224;7.484;2023-06-22T09:22:14;25.00;1.00
29777;DHT22;16677;52.224;7.484;2023-06-22T09:24:41;25.40;1.00
29777;DHT22;16677;52.224;7.484;2023-06-22T09:27:08;25.20;1.00
29777;DHT22;16677;52.224;7.484;2023-06-22T09:29:36;25.00;1.00
29777;DHT22;16677;52.224;7.484;2023-06-22T09:32:03;25.10;1.00
29777;DHT22;16677;52.224;7.484;2023-06-22T09:34:31;25.10;1.00
29777;DHT22;16677;52.224;7.484;2023-06-22T09:36:58;25.30;1.00
29777;DHT22;16677;52.224;7.484;2023-06-22T09:39:27;25.60;1.00
29777;DHT22;16677;52.224;7.484;2023-06-22T09:41:54;25.50;1.00
29777;DHT22;16677;52.224;7.484;2023-06-22T09:44:22;26.00;1.00
29777;DHT22;16677;52.224;7.484;2023-06-22T09:46:49;26.40;1.00
29777;DHT22;16677;52.224;7.484;2023-06-22T09:49:19;26.20;1.00
29777;DHT22;16677;52.224;7.484;2023-06-22T09:52:06;25.90;1.00
29777;DHT22;16677;52.224;7.484;2023-06-22T09:54:34;26.20;1.00
29777;DHT22;16677;52.224;7.484;2023-06-22T09:57:01;26.20;1.00
29777;DHT22;16677;52.224;7.484;2023-06-22T09:59:28;25.90;1.00
29777;DHT22;16677;52.224;7.484;2023-06-22T10:01:56;25.70;1.00
29777;DHT22;16677;52.224;7.484;2023-06-22T10:04:23;25.70;1.00
29777;DHT22;16677;52.224;7.484;2023-06-22T10:06:52;26.00;1.00
29777;DHT22;16677;52.224;7.484;2023-06-22T10:09:19;26.00;1.00
29777;DHT22;16677;52.224;7.484;2023-06-22T10:11:48;26.00;1.00
29777;DHT22;16677;52.224;7.484;2023-06-22T10:14:15;25.70;1.00
29777;DHT22;16677;52.224;7.484;2023-06-22T10:16:43;25.70;1.00
29777;DHT22;16677;52.224;7.484;2023-06-22T10:19:10;25.80;1.00
29777;DHT22;16677;52.224;7.484;2023-06-22T10:21:37;26.20;1.00
29777;DHT22;16677;52.224;7.484;2023-06-22T10:24:05;26.20;1.00
29777;DHT22;16677;52.224;7.484;2023-06-22T10:26:38;26.50;1.00
29777;DHT22;16677;52.224;7.484;2023-06-22T10:29:07;26.40;1.00
29777;DHT22;16677;52.224;7.484;2023-06-22T10:31:43;26.50;1.00
29777;DHT22;16677;52.224;7.484;2023-06-22T10:34:10;26.40;1.00
29777;DHT22;16677;52.224;7.484;2023-06-22T10:36:37;26.50;1.00
29777;DHT22;16677;52.224;7.484;2023-06-22T10:39:05;26.10;1.00
29777;DHT22;16677;52.224;7.484;2023-06-22T10:41:32;26.00;1.00
29777;DHT22;16677;52.224;7.484;2023-06-22T10:43:59;25.80;1.00
29777;DHT22;16677;52.224;7.484;2023-06-22T10:46:26;25.90;1.00
29777;DHT22;16677;52.224;7.484;2023-06-22T10:48:54;26.20;1.00
29777;DHT22;16677;52.224;7.484;2023-06-22T10:51:24;26.30;1.00
29777;DHT22;16677;52.224;7.484;2023-06-22T10:53:52;25.90;1.00
29777;DHT22;16677;52.224;7.484;2023-06-22T10:56:19;25.80;1.00
29777;DHT22;16677;52.224;7.484;2023-06-22T10:58:46;25.60;1.00
29777;DHT22;16677;52.224;7.484;2023-06-22T11:01:13;25.50;1.00
29777;DHT22;16677;52.224;7.484;2023-06-22T11:04:01;25.20;1.00
29777;DHT22;16677;52.224;7.484;2023-06-22T11:06:28;25.00;1.00
29777;DHT22;16677;52.224;7.484;2023-06-22T11:08:55;25.10;1.00
29777;DHT22;16677;52.224;7.484;2023-06-22T11:11:32;25.10;1.00
29777;DHT22;16677;52.224;7.484;2023-06-22T11:14:00;25.20;1.00
29777;DHT22;16677;52.224;7.484;2023-06-22T11:16:27;25.30;1.00
29777;DHT22;16677;52.224;7.484;2023-06-22T11:18:54;25.10;1.00
29777;DHT22;16677;52.224;7.484;2023-06-22T11:21:22;25.20;1.00
29777;DHT22;16677;52.224;7.484;2023-06-22T11:23:49;25.20;1.00
29777;DHT22;16677;52.224;7.484;2023-06-22T11:26:17;25.00;1.00
29777;DHT22;16677;52.224;7.484;2023-06-22T11:28:44;25.00;1.00
29777;DHT22;16677;52.224;7.484;2023-06-22T11:31:11;25.10;1.00
29777;DHT22;16677;52.224;7.484;2023-06-22T11:33:41;25.10;1.00
29777;DHT22;16677;52.224;7.484;2023-06-22T11:36:09;25.00;1.00
29777;DHT22;16677;52.224;7.484;2023-06-22T11:38:37;25.10;1.00
29777;DHT22;16677;52.224;7.484;2023-06-22T11:41:09;25.20;1.00
29777;DHT22;16677;52.224;7.484;2023-06-22T11:43:37;25.20;1.00
29777;DHT22;16677;52.224;7.484;2023-06-22T11:46:04;25.20;1.00
29777;DHT22;16677;52.224;7.484;2023-06-22T11:48:31;25.20;1.00
29777;DHT22;16677;52.224;7.484;2023-06-22T11:50:59;25.00;1.00
29777;DHT22;16677;52.224;7.484;2023-06-22T11:53:27;25.20;1.00
29777;DHT22;16677;52.224;7.484;2023-06-22T11:55:56;25.50;1.00
29777;DHT22;16677;52.224;7.484;2023-06-22T11:58:23;25.80;1.00
29777;DHT22;16677;52.224;7.484;2023-06-22T12:00:50;26.00;1.00
29777;DHT22;16677;52.224;7.484;2023-06-22T12:03:19;26.00;1.00
29777;DHT22;16677;52.224;7.484;2023-06-22T12:05:50;26.30;1.00
29777;DHT22;16677;52.224;7.484;2023-06-22T12:08:18;26.20;1.00
29777;DHT22;16677;52.224;7.484;2023-06-22T12:10:46;26.30;1.00
29777;DHT22;16677;52.224;7.484;2023-06-22T12:13:14;26.00;1.00
29777;DHT22;16677;52.224;7.484;2023-06-22T12:15:42;25.50;1.00
29777;DHT22;16677;52.224;7.484;2023-06-22T12:18:09;25.60;1.00
29777;DHT22;16677;52.224;7.484;2023-06-22T12:20:36;25.80;1.00
29777;DHT22;16677;52.224;7.484;2023-06-22T12:23:04;25.80;1.00
29777;DHT22;16677;52.224;7.484;2023-06-22T12:25:31;25.60;1.00
29777;DHT22;16677;52.224;7.484;2023-06-22T12:27:58;25.60;1.00
29777;DHT22;16677;52.224;7.484;2023-06-22T12:30:25;25.20;1.00
29777;DHT22;16677;52.224;7.484;2023-06-22T12:32:52;25.30;1.00
29777;DHT22;16677;52.224;7.484;2023-06-22T12:35:22;25.10;1.00
29777;DHT22;16677;52.224;7.484;2023-06-22T12:37:49;25.20;1.00
29777;DHT22;16677;52.224;7.484;2023-06-22T12:40:16;25.20;1.00
29777;DHT22;16677;52.224;7.484;2023-06-22T12:42:45;25.20;1.00
29777;DHT22;16677;52.224;7.484;2023-06-22T12:45:12;25.20;1.00
29777;DHT22;16677;52.224;7.484;2023-06-22T12:47:39;25.10;1.00
29777;DHT22;16677;52.224;7.484;2023-06-22T12:50:07;25.10;1.00
29777;DHT22;16677;52.224;7.484;2023-06-22T12:52:36;24.90;1.00
29777;DHT22;16677;52.224;7.484;2023-06-22T12:55:06;24.90;1.00
29777;DHT22;16677;52.224;7.484;2023-06-22T12:57:34;25.00;1.00
29777;DHT22;16677;52.224;7.484;2023-06-22T13:00:01;24.80;1.00
29777;DHT22;16677;52.224;7.484;2023-06-22T13:02:28;24.70;1.00
29777;DHT22;16677;52.224;7.484;2023-06-22T13:04:55;24.60;1.00
29777;DHT22;16677;52.224;7.484;2023-06-22T13:07:24;24.60;1.00
29777;DHT22;16677;52.224;7.484;2023-06-22T13:09:51;24.40;1.00
29777;DHT22;16677;52.224;7.484;2023-06-22T13:12:20;24.40;1.00
29777;DHT22;16677;52.224;7.484;2023-06-22T13:14:48;24.40;1.00
29777;DHT22;16677;52.224;7.484;2023-06-22T13:17:15;24.40;1.00
29777;DHT22;16677;52.224;7.484;2023-06-22T13:19:43;24.20;1.00
29777;DHT22;16677;52.224;7.484;2023-06-22T13:22:30;24.30;1.00
29777;DHT22;16677;52.224;7.484;2023-06-22T13:24:59;24.30;1.00
29777;DHT22;16677;52.224;7.484;2023-06-22T13:27:27;24.20;1.00
29777;DHT22;16677;52.224;7.484;2023-06-22T13:29:54;24.20;1.00
29777;DHT22;16677;52.224;7.484;2023-06-22T13:32:21;24.00;1.00
29777;DHT22;16677;52.224;7.484;2023-06-22T13:34:53;23.80;1.00
29777;DHT22;16677;52.224;7.484;2023-06-22T13:37:20;23.80;1.00
29777;DHT22;16677;52.224;7.484;2023-06-22T13:39:48;23.70;1.00
29777;DHT22;16677;52.224;7.484;2023-06-22T13:42:15;23.60;1.00
29777;DHT22;16677;52.224;7.484;2023-06-22T13:44:42;23.30;14.30
29777;DHT22;16677;52.224;7.484;2023-06-22T13:47:09;23.20;33.90
29777;DHT22;16677;52.224;7.484;2023-06-22T13:49:36;22.90;64.70
29777;DHT22;16677;52.224;7.484;2023-06-22T13:52:03;22.90;92.00
29777;DHT22;16677;52.224;7.484;2023-06-22T13:54:33;22.70;99.90
29777;DHT22;16677;52.224;7.484;2023-06-22T13:57:02;22.50;99.90
29777;DHT22;16677;52.224;7.484;2023-06-22T13:59:29;22.20;99.90
29777;DHT22;16677;52.224;7.484;2023-06-22T14:04:25;22.00;99.90
29777;DHT22;16677;52.224;7.484;2023-06-22T14:06:52;21.90;99.90
29777;DHT22;16677;52.224;7.484;2023-06-22T14:09:39;21.80;99.90
29777;DHT22;16677;52.224;7.484;2023-06-22T14:12:07;22.00;99.90
29777;DHT22;16677;52.224;7.484;2023-06-22T14:14:34;22.10;99.90
29777;DHT22;16677;52.224;7.484;2023-06-22T14:17:02;22.10;99.90
29777;DHT22;16677;52.224;7.484;2023-06-22T14:19:31;22.20;99.90
29777;DHT22;16677;52.224;7.484;2023-06-22T14:21:58;22.50;99.90
29777;DHT22;16677;52.224;7.484;2023-06-22T14:24:25;23.00;99.90
29777;DHT22;16677;52.224;7.484;2023-06-22T14:26:56;23.20;97.70
29777;DHT22;16677;52.224;7.484;2023-06-22T14:29:23;23.30;95.40
29777;DHT22;16677;52.224;7.484;2023-06-22T14:31:51;23.30;99.90
29777;DHT22;16677;52.224;7.484;2023-06-22T14:34:19;23.50;98.10
29777;DHT22;16677;52.224;7.484;2023-06-22T14:36:46;23.50;72.50
29777;DHT22;16677;52.224;7.484;2023-06-22T14:39:13;23.60;72.30
29777;DHT22;16677;52.224;7.484;2023-06-22T14:41:40;23.80;63.80
29777;DHT22;16677;52.224;7.484;2023-06-22T14:44:08;23.80;65.50
29777;DHT22;16677;52.224;7.484;2023-06-22T14:46:35;23.80;57.80
29777;DHT22;16677;52.224;7.484;2023-06-22T14:49:02;23.70;57.20
29777;DHT22;16677;52.224;7.484;2023-06-22T14:51:30;23.90;68.90
29777;DHT22;16677;52.224;7.484;2023-06-22T14:53:57;24.00;32.20
29777;DHT22;16677;52.224;7.484;2023-06-22T14:56:24;24.10;38.00
29777;DHT22;16677;52.224;7.484;2023-06-22T14:58:51;24.40;20.60
29777;DHT22;16677;52.224;7.484;2023-06-22T15:01:19;24.60;23.70
29777;DHT22;16677;52.224;7.484;2023-06-22T15:03:46;24.50;1.00
29777;DHT22;16677;52.224;7.484;2023-06-22T15:06:14;24.30;1.20
29777;DHT22;16677;52.224;7.484;2023-06-22T15:08:42;24.10;2.20
29777;DHT22;16677;52.224;7.484;2023-06-22T15:11:10;24.00;13.10
29777;DHT22;16677;52.224;7.484;2023-06-22T15:13:41;24.10;17.50
29777;DHT22;16677;52.224;7.484;2023-06-22T15:16:08;24.00;13.60
29777;DHT22;16677;52.224;7.484;2023-06-22T15:18:36;23.90;9.20
29777;DHT22;16677;52.224;7.484;2023-06-22T15:21:04;23.70;10.60
29777;DHT22;16677;52.224;7.484;2023-06-22T15:23:33;23.60;17.10
29777;DHT22;16677;52.224;7.484;2023-06-22T15:26:03;23.60;16.80
29777;DHT22;16677;52.224;7.484;2023-06-22T15:28:34;23.80;16.60
29777;DHT22;16677;52.224;7.484;2023-06-22T15:31:04;23.80;1.80
29777;DHT22;16677;52.224;7.484;2023-06-22T15:33:31;23.70;1.00
29777;DHT22;16677;52.224;7.484;2023-06-22T15:35:59;23.50;9.20
29777;DHT22;16677;52.224;7.484;2023-06-22T15:38:31;23.50;10.60
29777;DHT22;16677;52.224;7.484;2023-06-22T15:41:01;23.30;29.60
29777;DHT22;16677;52.224;7.484;2023-06-22T15:43:28;23.20;11.70
29777;DHT22;16677;52.224;7.484;2023-06-22T15:45:55;23.20;19.70
29777;DHT22;16677;52.224;7.484;2023-06-22T15:48:25;23.10;11.20
29777;DHT22;16677;52.224;7.484;2023-06-22T15:50:53;23.10;24.30
29777;DHT22;16677;52.224;7.484;2023-06-22T15:53:20;23.10;24.60
29777;DHT22;16677;52.224;7.484;2023-06-22T15:55:47;23.10;26.10
29777;DHT22;16677;52.224;7.484;2023-06-22T15:58:14;23.10;43.30
29777;DHT22;16677;52.224;7.484;2023-06-22T16:00:43;23.10;53.40
29777;DHT22;16677;52.224;7.484;2023-06-22T16:03:12;22.80;75.70
29777;DHT22;16677;52.224;7.484;2023-06-22T16:05:39;22.70;91.10